Saint-Athanase, Canada
Current Conditions -  °F | °C
As of 11:53 PM on Monday 20 Oct 2014 (Local Time) from KFVE Reporting Station
Clear Clear  
Wind Chill: 23°   Ceiling: Unl
Heat Index: 31°   Visibility: 10mi
Dew Point: 23°   Wind: 8mph
Humidity: 72%   Direction: 310°NW
Pressure: 29.92"   Gusts: NA
Location:  47.43°N, 69.42°W
Report Text: KFVE 210353Z AUTO 31007KT 10SM CLR M01/M05 A2992 RMK AO2 SLP141 T10061050
Loading
Personal Weather Stations






























Interactive Weather Map
Tropical Storm Tracking
New forecast layout! Learn more

10-Day Weather Forecast

Advertisements
Track Severe Weather on mobile